createdAt,value
2022-09-23T00:01:47.395Z,5.10
2022-09-23T00:04:16.372Z,4.70
2022-09-23T00:06:45.432Z,4.37
2022-09-23T00:09:15.163Z,5.23
2022-09-23T00:11:43.839Z,7.30
2022-09-23T00:14:12.662Z,3.80
2022-09-23T00:16:42.865Z,5.97
2022-09-23T00:19:11.750Z,9.43
2022-09-23T00:21:40.342Z,5.03
2022-09-23T00:24:09.251Z,6.23
2022-09-23T00:26:37.872Z,4.60
2022-09-23T00:29:06.502Z,5.80
2022-09-23T00:31:35.190Z,4.17
2022-09-23T00:34:05.337Z,4.77
2022-09-23T00:36:33.815Z,5.17
2022-09-23T00:39:04.764Z,4.30
2022-09-23T00:41:35.420Z,6.57
2022-09-23T00:44:19.531Z,6.83
2022-09-23T00:46:48.557Z,5.03
2022-09-23T00:49:29.802Z,6.70
2022-09-23T00:52:03.952Z,5.50
2022-09-23T00:54:32.977Z,5.23
2022-09-23T00:57:04.018Z,4.50
2022-09-23T00:59:33.978Z,5.47
2022-09-23T01:02:04.747Z,5.13
2022-09-23T01:04:35.698Z,4.53
2022-09-23T01:07:04.306Z,5.13
2022-09-23T01:09:33.160Z,5.40
2022-09-23T01:12:14.352Z,7.30
2022-09-23T01:14:50.149Z,4.97
2022-09-23T01:17:28.970Z,4.87
2022-09-23T01:20:30.309Z,5.00
2022-09-23T01:23:10.616Z,4.97
2022-09-23T01:25:58.046Z,6.43
2022-09-23T01:28:50.042Z,4.97
2022-09-23T01:31:27.143Z,5.00
2022-09-23T01:34:02.101Z,6.43
2022-09-23T01:36:37.676Z,6.20
2022-09-23T01:39:14.255Z,5.80
2022-09-23T01:41:53.220Z,6.90
2022-09-23T01:44:27.176Z,6.00
2022-09-23T01:47:01.555Z,5.60
2022-09-23T01:49:34.717Z,5.83
2022-09-23T01:52:10.286Z,7.07
2022-09-23T01:54:44.331Z,5.93
2022-09-23T01:57:19.165Z,6.27
2022-09-23T01:59:52.329Z,5.80
2022-09-23T02:02:30.723Z,6.40
2022-09-23T02:05:04.321Z,5.77
2022-09-23T02:07:39.228Z,5.87
2022-09-23T02:10:13.259Z,5.73
2022-09-23T02:12:45.715Z,6.67
2022-09-23T02:15:18.932Z,5.80
2022-09-23T02:17:53.254Z,7.43
2022-09-23T02:20:26.318Z,6.53
2022-09-23T02:23:01.849Z,9.33
2022-09-23T02:25:38.697Z,5.83
2022-09-23T02:28:14.040Z,6.27
2022-09-23T02:30:50.816Z,7.50
2022-09-23T02:33:27.792Z,7.67
2022-09-23T02:36:01.637Z,7.63
2022-09-23T02:38:35.737Z,8.53
2022-09-23T02:41:10.142Z,7.33
2022-09-23T02:43:45.644Z,7.30
2022-09-23T02:46:14.475Z,7.87
2022-09-23T02:48:47.898Z,6.10
2022-09-23T02:51:17.715Z,11.83
2022-09-23T02:53:46.809Z,7.87
2022-09-23T02:56:21.273Z,6.13
2022-09-23T02:58:51.966Z,6.33
2022-09-23T03:01:34.689Z,6.20
2022-09-23T03:04:14.991Z,6.53
2022-09-23T03:06:54.073Z,8.50
2022-09-23T03:09:27.369Z,7.57
2022-09-23T03:12:07.011Z,6.90
2022-09-23T03:14:44.648Z,6.10
2022-09-23T03:17:20.625Z,5.90
2022-09-23T03:19:55.233Z,6.57
2022-09-23T03:22:29.718Z,8.43
2022-09-23T03:25:02.998Z,7.63
2022-09-23T03:27:34.452Z,5.97
2022-09-23T03:30:06.604Z,7.37
2022-09-23T03:32:38.488Z,6.40
2022-09-23T03:35:09.963Z,6.80
2022-09-23T03:37:44.827Z,6.30
2022-09-23T03:40:17.777Z,7.77
2022-09-23T03:42:49.196Z,8.47
2022-09-23T03:45:21.252Z,10.47
2022-09-23T03:47:50.317Z,11.33
2022-09-23T03:50:21.440Z,7.10
2022-09-23T03:52:50.858Z,7.80
2022-09-23T03:55:21.428Z,9.33
2022-09-23T03:57:50.251Z,8.40
2022-09-23T04:00:19.624Z,7.97
2022-09-23T04:02:48.457Z,8.67
2022-09-23T04:05:19.303Z,7.00
2022-09-23T04:07:51.060Z,7.10
2022-09-23T04:10:20.088Z,7.07
2022-09-23T04:12:48.761Z,7.73
2022-09-23T04:15:17.805Z,11.67
2022-09-23T04:17:48.759Z,9.43
2022-09-23T04:20:19.188Z,7.57
2022-09-23T04:22:50.267Z,8.80
2022-09-23T04:25:19.143Z,9.77
2022-09-23T04:27:48.155Z,9.20
2022-09-23T04:30:17.584Z,7.33
2022-09-23T04:32:46.263Z,7.73
2022-09-23T04:35:15.096Z,8.20
2022-09-23T04:37:44.045Z,6.53
2022-09-23T04:40:14.251Z,6.63
2022-09-23T04:42:43.013Z,6.63
2022-09-23T04:45:12.480Z,6.50
2022-09-23T04:47:41.552Z,6.77
2022-09-23T04:50:10.793Z,7.67
2022-09-23T04:52:39.839Z,7.87
2022-09-23T04:55:12.630Z,7.53
2022-09-23T04:57:43.916Z,8.03
2022-09-23T05:00:15.902Z,6.77
2022-09-23T05:02:46.013Z,8.27
2022-09-23T05:05:15.807Z,6.43
2022-09-23T05:07:44.599Z,6.73
2022-09-23T05:10:13.379Z,7.03
2022-09-23T05:12:43.972Z,6.40
2022-09-23T05:15:13.400Z,6.50
2022-09-23T05:17:42.994Z,7.50
2022-09-23T05:20:12.946Z,7.03
2022-09-23T05:22:41.654Z,10.03
2022-09-23T05:25:11.006Z,6.37
2022-09-23T05:27:42.500Z,6.33
2022-09-23T05:30:13.637Z,7.63
2022-09-23T05:32:44.746Z,7.17
2022-09-23T05:35:13.637Z,7.53
2022-09-23T05:37:42.660Z,8.03
2022-09-23T05:40:12.503Z,7.37
2022-09-23T05:42:41.366Z,6.73
2022-09-23T05:45:12.185Z,9.23
2022-09-23T05:47:41.393Z,7.83
2022-09-23T05:50:10.697Z,6.63
2022-09-23T05:52:39.686Z,6.97
2022-09-23T05:55:11.452Z,5.80
2022-09-23T05:57:40.894Z,6.43
2022-09-23T06:00:12.777Z,8.13
2022-09-23T06:02:41.998Z,6.37
2022-09-23T06:05:11.993Z,7.63
2022-09-23T06:07:40.740Z,7.40
2022-09-23T06:10:10.142Z,7.40
2022-09-23T06:12:38.807Z,7.80
2022-09-23T06:15:09.179Z,8.80
2022-09-23T06:17:39.550Z,8.20
2022-09-23T06:20:09.437Z,11.40
2022-09-23T06:22:40.141Z,11.53
2022-09-23T06:25:09.820Z,9.33
2022-09-23T06:27:38.574Z,9.50
2022-09-23T06:30:08.773Z,9.63
2022-09-23T06:32:39.158Z,8.23
2022-09-23T06:35:20.183Z,7.30
2022-09-23T06:37:54.972Z,7.77
2022-09-23T06:40:24.558Z,7.63
2022-09-23T06:42:59.985Z,6.97
2022-09-23T06:45:30.032Z,7.53
2022-09-23T06:48:00.481Z,4.63
2022-09-23T06:50:29.834Z,4.70
2022-09-23T06:52:58.778Z,6.00
2022-09-23T06:55:28.875Z,4.87
2022-09-23T06:57:59.671Z,5.87
2022-09-23T07:00:34.207Z,4.57
2022-09-23T07:03:13.546Z,5.63
2022-09-23T07:05:42.528Z,5.83
2022-09-23T07:08:12.046Z,6.50
2022-09-23T07:10:41.173Z,6.23
2022-09-23T07:13:15.536Z,5.03
2022-09-23T07:15:51.055Z,5.30
2022-09-23T07:18:24.172Z,5.50
2022-09-23T07:20:53.248Z,5.63
2022-09-23T07:23:22.528Z,7.07
2022-09-23T07:25:52.101Z,4.03
2022-09-23T07:28:21.571Z,6.33
2022-09-23T07:30:59.160Z,4.73
2022-09-23T07:33:33.534Z,4.70
2022-09-23T07:36:06.733Z,6.10
2022-09-23T07:38:36.521Z,4.20
2022-09-23T07:41:09.497Z,4.80
2022-09-23T07:43:41.019Z,4.97
2022-09-23T07:46:16.308Z,4.17
2022-09-23T07:48:47.676Z,4.53
2022-09-23T07:51:20.935Z,4.43
2022-09-23T07:53:51.769Z,13.57
2022-09-23T07:56:23.061Z,10.70
2022-09-23T07:59:00.617Z,9.23
2022-09-23T08:01:31.454Z,7.10
2022-09-23T08:04:04.530Z,4.73
2022-09-23T08:06:34.054Z,8.37
2022-09-23T08:09:03.551Z,4.63
2022-09-23T08:11:33.894Z,4.47
2022-09-23T08:14:02.884Z,4.67
2022-09-23T08:16:31.900Z,3.80
2022-09-23T08:19:02.523Z,7.07
2022-09-23T08:21:31.674Z,3.37
2022-09-23T08:24:00.964Z,5.07
2022-09-23T08:26:31.529Z,3.93
2022-09-23T08:29:00.402Z,4.17
2022-09-23T08:31:29.546Z,3.83
2022-09-23T08:33:59.488Z,6.27
2022-09-23T08:36:29.925Z,5.70
2022-09-23T08:39:00.052Z,6.23
2022-09-23T08:41:37.742Z,5.67
2022-09-23T08:44:14.233Z,8.10
2022-09-23T08:46:48.451Z,6.20
2022-09-23T08:49:27.872Z,8.20
2022-09-23T08:52:02.220Z,11.00
2022-09-23T08:54:33.205Z,38.83
2022-09-23T08:57:06.658Z,25.47
2022-09-23T08:59:43.643Z,27.90
2022-09-23T09:02:19.781Z,9.13
2022-09-23T09:04:52.650Z,6.77
2022-09-23T09:07:36.570Z,5.20
2022-09-23T09:10:12.821Z,5.77
2022-09-23T09:12:45.500Z,4.43
2022-09-23T09:15:17.746Z,5.70
2022-09-23T09:17:55.719Z,6.47
2022-09-23T09:20:26.692Z,5.30
2022-09-23T09:23:00.141Z,6.67
2022-09-23T09:25:41.500Z,6.37
2022-09-23T09:28:20.690Z,7.40
2022-09-23T09:30:56.746Z,4.57
2022-09-23T09:33:31.295Z,6.43
2022-09-23T09:36:22.903Z,9.60
2022-09-23T09:38:54.461Z,5.47
2022-09-23T09:41:29.062Z,6.57
2022-09-23T09:44:01.328Z,3.90
2022-09-23T09:46:51.852Z,3.90
2022-09-23T09:49:28.715Z,6.10
2022-09-23T09:52:29.388Z,4.77
2022-09-23T09:55:24.915Z,3.83
2022-09-23T09:58:02.320Z,8.30
2022-09-23T10:00:50.942Z,5.10
2022-09-23T10:03:41.729Z,5.63
2022-09-23T10:06:22.891Z,6.03
2022-09-23T10:09:15.631Z,5.07
2022-09-23T10:12:05.877Z,5.17
2022-09-23T10:14:37.004Z,5.67
2022-09-23T10:17:07.831Z,2.30
2022-09-23T10:19:46.133Z,4.93
2022-09-23T10:22:25.824Z,2.60
2022-09-23T10:25:03.870Z,2.87
2022-09-23T10:27:37.601Z,5.37
2022-09-23T10:30:22.428Z,3.20
2022-09-23T10:32:55.222Z,2.93
2022-09-23T10:35:40.169Z,4.30
2022-09-23T10:38:12.405Z,5.60
2022-09-23T10:41:00.456Z,2.40
2022-09-23T10:44:12.838Z,2.47
2022-09-23T10:46:49.674Z,4.40
2022-09-23T10:49:43.395Z,4.23
2022-09-23T10:52:35.635Z,4.87
2022-09-23T10:55:18.171Z,5.50
2022-09-23T10:58:05.780Z,3.00
2022-09-23T11:00:45.132Z,3.17
2022-09-23T11:04:09.607Z,6.20
2022-09-23T11:06:49.676Z,3.83
2022-09-23T11:09:30.870Z,2.43
2022-09-23T11:12:10.678Z,2.20
2022-09-23T11:15:03.885Z,4.40
2022-09-23T11:18:04.582Z,4.03
2022-09-23T11:20:47.977Z,3.10
2022-09-23T11:24:03.714Z,4.10
2022-09-23T11:26:43.622Z,2.20
2022-09-23T11:29:30.535Z,4.70
2022-09-23T11:32:19.656Z,6.27
2022-09-23T11:35:02.947Z,5.30
2022-09-23T11:37:42.316Z,3.97
2022-09-23T11:40:20.136Z,4.80
2022-09-23T11:42:58.510Z,2.53
2022-09-23T11:45:32.732Z,6.17
2022-09-23T11:48:09.141Z,6.10
2022-09-23T11:50:50.688Z,3.50
2022-09-23T11:53:25.642Z,2.87
2022-09-23T11:56:04.106Z,5.37
2022-09-23T12:01:30.370Z,3.63
2022-09-23T12:04:17.728Z,3.67
2022-09-23T12:07:02.103Z,1.98
2022-09-23T12:09:57.602Z,2.58
2022-09-23T12:12:38.433Z,3.20
2022-09-23T12:15:23.066Z,3.70
2022-09-23T12:18:25.130Z,2.35
2022-09-23T12:21:49.058Z,3.53
2022-09-23T12:24:50.697Z,4.97
2022-09-23T12:27:36.700Z,4.28
2022-09-23T12:30:16.043Z,5.13
2022-09-23T12:32:46.627Z,5.75
2022-09-23T12:35:27.878Z,3.13
2022-09-23T12:38:04.236Z,2.20
2022-09-23T12:40:37.421Z,4.28
2022-09-23T12:43:08.527Z,3.00
2022-09-23T12:45:41.124Z,3.38
2022-09-23T12:48:43.161Z,2.63
2022-09-23T12:51:21.930Z,3.00
2022-09-23T12:54:26.873Z,2.60
2022-09-23T12:57:36.825Z,2.92
2022-09-23T13:00:33.543Z,4.18
2022-09-23T13:03:20.948Z,4.10
2022-09-23T13:06:10.996Z,5.43
2022-09-23T13:08:42.593Z,7.18
2022-09-23T13:11:26.059Z,3.53
2022-09-23T13:14:01.271Z,2.75
2022-09-23T13:16:37.517Z,3.30
2022-09-23T13:19:08.753Z,3.05
2022-09-23T13:22:10.400Z,2.63
2022-09-23T13:24:59.532Z,1.83
2022-09-23T13:27:44.502Z,4.72
2022-09-23T13:30:25.933Z,3.33
2022-09-23T13:33:08.522Z,3.85
2022-09-23T13:35:40.752Z,3.67
2022-09-23T13:38:21.102Z,4.18
2022-09-23T13:40:50.279Z,4.38
2022-09-23T13:43:25.461Z,3.37
2022-09-23T13:45:55.610Z,7.10
2022-09-23T13:48:28.632Z,10.15
2022-09-23T13:50:57.765Z,6.35
2022-09-23T13:53:30.431Z,4.88
2022-09-23T13:56:06.073Z,5.07
2022-09-23T13:58:38.274Z,8.75
2022-09-23T14:01:12.218Z,5.30
2022-09-23T14:03:44.670Z,7.00
2022-09-23T14:06:16.972Z,7.67
2022-09-23T14:08:59.268Z,9.98
2022-09-23T14:11:32.798Z,6.38
2022-09-23T14:14:08.379Z,7.85
2022-09-23T14:16:41.791Z,4.85
2022-09-23T14:19:18.929Z,5.38
2022-09-23T14:21:51.642Z,7.32
2022-09-23T14:24:22.848Z,6.00
2022-09-23T14:26:57.970Z,5.85
2022-09-23T14:29:33.155Z,8.75
2022-09-23T14:32:06.886Z,6.82
2022-09-23T14:34:46.023Z,6.40
2022-09-23T14:37:40.905Z,5.63
2022-09-23T14:40:17.548Z,7.45
2022-09-23T14:42:54.262Z,13.45
2022-09-23T14:45:27.876Z,7.88
2022-09-23T14:48:03.163Z,7.55
2022-09-23T14:50:44.194Z,6.20
2022-09-23T14:53:35.795Z,5.65
2022-09-23T14:56:30.012Z,7.15
2022-09-23T14:59:04.157Z,5.53
2022-09-23T15:01:40.464Z,5.68
2022-09-23T15:04:19.173Z,6.22
2022-09-23T15:06:56.047Z,3.45
2022-09-23T15:09:27.689Z,8.00
2022-09-23T15:12:03.296Z,5.03
2022-09-23T15:14:39.174Z,4.90
2022-09-23T15:17:22.864Z,3.47
2022-09-23T15:19:59.952Z,5.23
2022-09-23T15:22:31.444Z,4.30
2022-09-23T15:25:16.839Z,3.30
2022-09-23T15:28:03.141Z,3.27
2022-09-23T15:30:33.275Z,4.20
2022-09-23T15:33:03.261Z,3.97
2022-09-23T15:35:33.694Z,5.17
2022-09-23T15:38:05.265Z,3.80
2022-09-23T15:40:36.505Z,3.20
2022-09-23T15:43:20.913Z,5.03
2022-09-23T15:45:53.461Z,5.77
2022-09-23T15:48:27.589Z,6.10
2022-09-23T15:50:58.701Z,6.90
2022-09-23T15:53:32.108Z,7.20
2022-09-23T15:56:01.505Z,3.17
2022-09-23T15:58:30.897Z,3.60
2022-09-23T16:01:00.584Z,4.93
2022-09-23T16:03:30.745Z,5.30
2022-09-23T16:06:03.660Z,5.07
2022-09-23T16:08:34.358Z,3.33
2022-09-23T16:11:09.637Z,9.47
2022-09-23T16:13:40.553Z,5.50
2022-09-23T16:16:10.795Z,3.57
2022-09-23T16:18:42.501Z,2.90
2022-09-23T16:21:16.237Z,6.87
2022-09-23T16:23:49.599Z,5.30
2022-09-23T16:26:22.355Z,4.47
2022-09-23T16:28:53.358Z,4.37
2022-09-23T16:31:25.892Z,4.50
2022-09-23T16:33:55.476Z,4.87
2022-09-23T16:36:27.431Z,5.10
2022-09-23T16:38:59.402Z,4.10
2022-09-23T16:41:31.802Z,3.50
2022-09-23T16:44:02.574Z,6.30
2022-09-23T16:46:32.045Z,4.30
2022-09-23T16:49:02.167Z,3.77
2022-09-23T16:51:38.676Z,4.60
2022-09-23T16:54:13.991Z,5.80
2022-09-23T16:56:45.734Z,6.80
2022-09-23T16:59:17.720Z,5.63
2022-09-23T17:02:04.492Z,7.33
2022-09-23T17:04:37.112Z,7.10
2022-09-23T17:07:06.484Z,5.77
2022-09-23T17:09:37.114Z,7.57
2022-09-23T17:12:15.925Z,10.40
2022-09-23T17:14:46.243Z,26.77
2022-09-23T17:17:16.461Z,36.93
2022-09-23T17:19:49.042Z,38.90
2022-09-23T17:22:19.687Z,45.97
2022-09-23T17:24:51.261Z,41.27
2022-09-23T17:27:20.990Z,33.70
2022-09-23T17:29:50.740Z,24.37
2022-09-23T17:32:21.530Z,16.83
2022-09-23T17:34:52.379Z,19.33
2022-09-23T17:37:25.894Z,18.90
2022-09-23T17:39:57.471Z,20.50
2022-09-23T17:42:26.759Z,22.37
2022-09-23T17:44:58.502Z,23.77
2022-09-23T17:47:28.106Z,22.33
2022-09-23T17:49:58.984Z,20.40
2022-09-23T17:52:28.316Z,21.37
2022-09-23T17:55:00.598Z,18.97
2022-09-23T17:57:30.298Z,20.13
2022-09-23T18:00:00.118Z,19.07
2022-09-23T18:02:29.496Z,19.60
2022-09-23T18:04:58.774Z,17.87
2022-09-23T18:07:28.047Z,12.97
2022-09-23T18:09:59.223Z,11.00
2022-09-23T18:12:30.415Z,13.13
2022-09-23T18:14:59.544Z,26.77
2022-09-23T18:17:29.964Z,36.13
2022-09-23T18:19:58.991Z,54.33
2022-09-23T18:22:31.382Z,46.60
2022-09-23T18:25:17.391Z,42.07
2022-09-23T18:27:52.968Z,35.80
2022-09-23T18:30:36.222Z,33.77
2022-09-23T18:33:07.208Z,27.90
2022-09-23T18:35:39.603Z,22.60
2022-09-23T18:38:08.883Z,23.70
2022-09-23T18:40:40.927Z,18.67
2022-09-23T18:43:11.966Z,16.63
2022-09-23T18:45:46.080Z,19.70
2022-09-23T18:48:34.059Z,18.80
2022-09-23T18:51:05.012Z,18.33
2022-09-23T18:53:34.964Z,15.37
2022-09-23T18:56:09.619Z,18.03
2022-09-23T18:58:39.127Z,15.57
2022-09-23T19:01:11.665Z,14.23
2022-09-23T19:03:42.057Z,15.63
2022-09-23T19:06:15.508Z,17.40
2022-09-23T19:08:52.482Z,12.27
2022-09-23T19:11:25.155Z,12.10
2022-09-23T19:14:01.242Z,12.03
2022-09-23T19:16:32.666Z,12.57
2022-09-23T19:19:02.794Z,11.03
2022-09-23T19:21:33.179Z,12.10
2022-09-23T19:24:07.940Z,9.90
2022-09-23T19:26:42.998Z,8.80
2022-09-23T19:29:19.836Z,10.23
2022-09-23T19:31:49.741Z,14.33
2022-09-23T19:34:24.030Z,17.40
2022-09-23T19:36:54.821Z,25.23
2022-09-23T19:39:26.580Z,33.00
2022-09-23T19:41:59.633Z,38.97
2022-09-23T19:44:29.957Z,38.23
2022-09-23T19:46:59.495Z,37.20
2022-09-23T19:49:31.474Z,28.37
2022-09-23T19:52:01.125Z,29.00
2022-09-23T19:54:30.197Z,23.27
2022-09-23T19:57:01.911Z,13.30
2022-09-23T19:59:36.098Z,8.87
2022-09-23T20:02:05.599Z,8.50
2022-09-23T20:04:36.266Z,9.43
2022-09-23T20:07:09.066Z,11.37
2022-09-23T20:09:38.844Z,16.63
2022-09-23T20:12:11.571Z,17.43
2022-09-23T20:14:42.101Z,14.27
2022-09-23T20:17:13.779Z,14.87
2022-09-23T20:19:44.916Z,13.57
2022-09-23T20:22:33.089Z,12.27
2022-09-23T20:25:04.699Z,12.67
2022-09-23T20:27:35.299Z,15.60
2022-09-23T20:30:04.545Z,15.20
2022-09-23T20:32:33.699Z,21.80
2022-09-23T20:35:03.499Z,22.93
2022-09-23T20:37:34.305Z,26.00
2022-09-23T20:40:04.623Z,20.97
2022-09-23T20:42:38.364Z,21.07
2022-09-23T20:45:09.755Z,22.43
2022-09-23T20:47:38.863Z,21.93
2022-09-23T20:50:09.614Z,23.77
2022-09-23T20:52:39.466Z,23.43
2022-09-23T20:55:09.842Z,20.77
2022-09-23T20:57:40.905Z,21.33
2022-09-23T21:00:11.741Z,26.10
2022-09-23T21:02:41.127Z,23.97
2022-09-23T21:05:12.096Z,22.03
2022-09-23T21:07:41.367Z,21.73
2022-09-23T21:10:11.001Z,18.77
2022-09-23T21:12:41.597Z,13.73
2022-09-23T21:15:14.070Z,14.63
2022-09-23T21:17:45.800Z,12.63
2022-09-23T21:20:15.081Z,12.93
2022-09-23T21:22:44.892Z,16.03
2022-09-23T21:25:30.717Z,12.17
2022-09-23T21:28:02.776Z,10.90
2022-09-23T21:30:32.138Z,11.17
2022-09-23T21:33:02.714Z,10.13
2022-09-23T21:35:32.583Z,9.70
2022-09-23T21:38:02.220Z,10.77
2022-09-23T21:40:48.504Z,13.70
2022-09-23T21:43:21.559Z,12.03
2022-09-23T21:45:51.432Z,10.80
2022-09-23T21:48:20.497Z,11.93
2022-09-23T21:51:00.847Z,12.47
2022-09-23T21:53:32.337Z,13.87
2022-09-23T21:56:07.634Z,12.30
2022-09-23T21:58:39.041Z,9.70
2022-09-23T22:01:13.245Z,11.37
2022-09-23T22:03:43.635Z,10.30
2022-09-23T22:06:22.065Z,13.10
2022-09-23T22:08:53.605Z,11.00
2022-09-23T22:11:42.793Z,9.33
2022-09-23T22:14:15.614Z,10.53
2022-09-23T22:16:49.851Z,9.67
2022-09-23T22:19:19.612Z,8.70
2022-09-23T22:21:50.901Z,13.10
2022-09-23T22:24:19.816Z,11.80
2022-09-23T22:26:49.300Z,10.67
2022-09-23T22:29:37.246Z,10.63
2022-09-23T22:32:29.010Z,9.50
2022-09-23T22:34:58.332Z,9.63
2022-09-23T22:37:30.586Z,7.10
2022-09-23T22:40:00.045Z,7.43
2022-09-23T22:42:31.428Z,8.33
2022-09-23T22:45:01.745Z,10.73
2022-09-23T22:47:31.277Z,10.53
2022-09-23T22:50:00.257Z,10.03
2022-09-23T22:52:29.648Z,7.00
2022-09-23T22:54:58.892Z,7.33
2022-09-23T22:57:29.707Z,9.20
2022-09-23T22:59:58.544Z,10.53
2022-09-23T23:02:28.838Z,11.67
2022-09-23T23:05:00.617Z,11.87
2022-09-23T23:07:29.534Z,12.90
2022-09-23T23:09:59.006Z,15.70
2022-09-23T23:12:28.071Z,16.07
2022-09-23T23:14:57.571Z,13.17
2022-09-23T23:17:28.479Z,14.70
2022-09-23T23:19:57.648Z,13.00
2022-09-23T23:22:29.121Z,12.40
2022-09-23T23:24:58.240Z,15.07
2022-09-23T23:27:28.328Z,11.97
2022-09-23T23:29:57.850Z,15.40
2022-09-23T23:32:29.463Z,12.47
2022-09-23T23:34:58.253Z,9.30
2022-09-23T23:37:26.914Z,10.67
2022-09-23T23:39:56.004Z,12.77
2022-09-23T23:42:24.704Z,12.83
2022-09-23T23:44:53.796Z,12.87
2022-09-23T23:47:23.529Z,11.27
2022-09-23T23:49:54.507Z,12.37
2022-09-23T23:52:23.370Z,9.70
2022-09-23T23:54:53.086Z,15.03
2022-09-23T23:57:22.105Z,11.60
2022-09-23T23:59:51.200Z,11.43
